sensor_id;sensor_type;location;lat;lon;timestamp;P1;durP1;ratioP1;P2;durP2;ratioP2
10473;SDS011;5284;50.446;7.904;2023-05-13T00:03:33;7.70;;;5.80;;
10473;SDS011;5284;50.446;7.904;2023-05-13T00:08:38;11.55;;;6.20;;
10473;SDS011;5284;50.446;7.904;2023-05-13T00:13:41;9.65;;;5.90;;
10473;SDS011;5284;50.446;7.904;2023-05-13T00:18:43;10.88;;;5.55;;
10473;SDS011;5284;50.446;7.904;2023-05-13T00:23:48;11.88;;;5.25;;
10473;SDS011;5284;50.446;7.904;2023-05-13T00:28:50;6.97;;;5.45;;
10473;SDS011;5284;50.446;7.904;2023-05-13T00:33:53;11.15;;;6.32;;
10473;SDS011;5284;50.446;7.904;2023-05-13T00:38:58;15.00;;;8.05;;
10473;SDS011;5284;50.446;7.904;2023-05-13T00:44:01;9.85;;;5.25;;
10473;SDS011;5284;50.446;7.904;2023-05-13T00:49:04;11.77;;;5.72;;
10473;SDS011;5284;50.446;7.904;2023-05-13T00:54:08;7.13;;;5.70;;
10473;SDS011;5284;50.446;7.904;2023-05-13T00:59:11;13.80;;;7.50;;
10473;SDS011;5284;50.446;7.904;2023-05-13T01:04:16;15.88;;;7.20;;
10473;SDS011;5284;50.446;7.904;2023-05-13T01:09:31;9.98;;;5.07;;
10473;SDS011;5284;50.446;7.904;2023-05-13T01:14:44;10.05;;;5.72;;
10473;SDS011;5284;50.446;7.904;2023-05-13T01:19:51;15.32;;;5.88;;
10473;SDS011;5284;50.446;7.904;2023-05-13T01:24:59;10.43;;;6.50;;
10473;SDS011;5284;50.446;7.904;2023-05-13T01:30:02;9.70;;;6.40;;
10473;SDS011;5284;50.446;7.904;2023-05-13T01:35:07;13.00;;;5.97;;
10473;SDS011;5284;50.446;7.904;2023-05-13T01:40:18;13.00;;;6.15;;
10473;SDS011;5284;50.446;7.904;2023-05-13T01:45:36;11.75;;;5.85;;
10473;SDS011;5284;50.446;7.904;2023-05-13T01:50:39;14.05;;;6.80;;
10473;SDS011;5284;50.446;7.904;2023-05-13T01:55:44;10.63;;;5.10;;
10473;SDS011;5284;50.446;7.904;2023-05-13T02:00:47;7.43;;;5.13;;
10473;SDS011;5284;50.446;7.904;2023-05-13T02:05:51;9.38;;;5.57;;
10473;SDS011;5284;50.446;7.904;2023-05-13T02:10:55;12.05;;;5.78;;
10473;SDS011;5284;50.446;7.904;2023-05-13T02:15:59;6.60;;;5.38;;
10473;SDS011;5284;50.446;7.904;2023-05-13T02:21:02;10.73;;;6.30;;
10473;SDS011;5284;50.446;7.904;2023-05-13T02:26:06;10.30;;;5.72;;
10473;SDS011;5284;50.446;7.904;2023-05-13T02:31:09;11.60;;;5.70;;
10473;SDS011;5284;50.446;7.904;2023-05-13T02:36:12;9.80;;;5.85;;
10473;SDS011;5284;50.446;7.904;2023-05-13T02:41:16;7.10;;;5.72;;
10473;SDS011;5284;50.446;7.904;2023-05-13T02:46:20;10.27;;;5.40;;
10473;SDS011;5284;50.446;7.904;2023-05-13T02:51:24;8.00;;;5.53;;
10473;SDS011;5284;50.446;7.904;2023-05-13T02:56:29;10.85;;;5.90;;
10473;SDS011;5284;50.446;7.904;2023-05-13T03:01:31;14.70;;;6.75;;
10473;SDS011;5284;50.446;7.904;2023-05-13T03:06:35;7.47;;;5.30;;
10473;SDS011;5284;50.446;7.904;2023-05-13T03:11:39;6.30;;;3.92;;
10473;SDS011;5284;50.446;7.904;2023-05-13T03:16:42;10.02;;;5.75;;
10473;SDS011;5284;50.446;7.904;2023-05-13T03:21:47;11.93;;;5.45;;
10473;SDS011;5284;50.446;7.904;2023-05-13T03:26:51;7.18;;;5.38;;
10473;SDS011;5284;50.446;7.904;2023-05-13T03:31:54;9.40;;;5.90;;
10473;SDS011;5284;50.446;7.904;2023-05-13T03:36:58;6.35;;;4.60;;
10473;SDS011;5284;50.446;7.904;2023-05-13T03:42:04;6.18;;;4.13;;
10473;SDS011;5284;50.446;7.904;2023-05-13T03:47:08;8.43;;;4.20;;
10473;SDS011;5284;50.446;7.904;2023-05-13T03:52:12;7.88;;;4.70;;
10473;SDS011;5284;50.446;7.904;2023-05-13T03:57:16;5.70;;;4.15;;
10473;SDS011;5284;50.446;7.904;2023-05-13T04:02:20;6.40;;;4.93;;
10473;SDS011;5284;50.446;7.904;2023-05-13T04:07:24;13.77;;;4.93;;
10473;SDS011;5284;50.446;7.904;2023-05-13T04:12:28;6.28;;;4.90;;
10473;SDS011;5284;50.446;7.904;2023-05-13T04:18:45;14.45;;;4.57;;
10473;SDS011;5284;50.446;7.904;2023-05-13T04:25:01;7.07;;;4.83;;
10473;SDS011;5284;50.446;7.904;2023-05-13T04:30:06;10.35;;;5.50;;
10473;SDS011;5284;50.446;7.904;2023-05-13T04:35:11;12.18;;;5.63;;
10473;SDS011;5284;50.446;7.904;2023-05-13T04:40:17;7.57;;;5.43;;
10473;SDS011;5284;50.446;7.904;2023-05-13T04:45:23;12.73;;;5.47;;
10473;SDS011;5284;50.446;7.904;2023-05-13T04:50:29;10.30;;;5.88;;
10473;SDS011;5284;50.446;7.904;2023-05-13T04:55:33;11.45;;;5.05;;
10473;SDS011;5284;50.446;7.904;2023-05-13T05:00:37;10.30;;;5.22;;
10473;SDS011;5284;50.446;7.904;2023-05-13T05:05:40;8.05;;;4.85;;
10473;SDS011;5284;50.446;7.904;2023-05-13T05:10:45;10.88;;;4.90;;
10473;SDS011;5284;50.446;7.904;2023-05-13T05:15:50;9.05;;;4.43;;
10473;SDS011;5284;50.446;7.904;2023-05-13T05:20:53;5.53;;;3.78;;
10473;SDS011;5284;50.446;7.904;2023-05-13T05:25:57;7.90;;;4.97;;
10473;SDS011;5284;50.446;7.904;2023-05-13T05:31:14;7.13;;;5.43;;
10473;SDS011;5284;50.446;7.904;2023-05-13T05:36:18;13.77;;;5.78;;
10473;SDS011;5284;50.446;7.904;2023-05-13T05:41:21;16.92;;;9.02;;
10473;SDS011;5284;50.446;7.904;2023-05-13T05:46:26;11.95;;;6.57;;
10473;SDS011;5284;50.446;7.904;2023-05-13T05:51:29;11.80;;;6.03;;
10473;SDS011;5284;50.446;7.904;2023-05-13T05:56:34;14.10;;;5.85;;
10473;SDS011;5284;50.446;7.904;2023-05-13T06:01:39;10.13;;;6.88;;
10473;SDS011;5284;50.446;7.904;2023-05-13T06:06:42;8.55;;;6.18;;
10473;SDS011;5284;50.446;7.904;2023-05-13T06:11:45;15.40;;;7.07;;
10473;SDS011;5284;50.446;7.904;2023-05-13T06:16:49;14.88;;;5.85;;
10473;SDS011;5284;50.446;7.904;2023-05-13T06:21:55;18.15;;;6.68;;
10473;SDS011;5284;50.446;7.904;2023-05-13T06:26:58;10.23;;;6.10;;
10473;SDS011;5284;50.446;7.904;2023-05-13T06:32:02;12.32;;;5.60;;
10473;SDS011;5284;50.446;7.904;2023-05-13T06:37:06;11.55;;;6.45;;
10473;SDS011;5284;50.446;7.904;2023-05-13T06:42:10;14.65;;;6.03;;
10473;SDS011;5284;50.446;7.904;2023-05-13T06:47:21;12.90;;;6.50;;
10473;SDS011;5284;50.446;7.904;2023-05-13T06:52:24;7.55;;;5.55;;
10473;SDS011;5284;50.446;7.904;2023-05-13T06:57:27;9.75;;;5.13;;
10473;SDS011;5284;50.446;7.904;2023-05-13T07:02:44;7.32;;;5.13;;
10473;SDS011;5284;50.446;7.904;2023-05-13T07:07:47;8.40;;;5.20;;
10473;SDS011;5284;50.446;7.904;2023-05-13T07:12:53;5.85;;;4.25;;
10473;SDS011;5284;50.446;7.904;2023-05-13T07:17:59;11.05;;;5.53;;
10473;SDS011;5284;50.446;7.904;2023-05-13T07:23:02;10.40;;;6.47;;
10473;SDS011;5284;50.446;7.904;2023-05-13T07:28:05;8.25;;;5.22;;
10473;SDS011;5284;50.446;7.904;2023-05-13T07:33:09;13.55;;;5.05;;
10473;SDS011;5284;50.446;7.904;2023-05-13T07:38:12;11.65;;;5.22;;
10473;SDS011;5284;50.446;7.904;2023-05-13T07:43:15;9.68;;;5.45;;
10473;SDS011;5284;50.446;7.904;2023-05-13T07:48:25;14.20;;;6.40;;
10473;SDS011;5284;50.446;7.904;2023-05-13T07:53:29;9.65;;;4.72;;
10473;SDS011;5284;50.446;7.904;2023-05-13T07:58:32;9.80;;;5.18;;
10473;SDS011;5284;50.446;7.904;2023-05-13T08:03:37;11.35;;;5.18;;
10473;SDS011;5284;50.446;7.904;2023-05-13T08:08:40;6.93;;;4.32;;
10473;SDS011;5284;50.446;7.904;2023-05-13T08:13:43;10.45;;;4.55;;
10473;SDS011;5284;50.446;7.904;2023-05-13T08:18:47;10.38;;;5.88;;
10473;SDS011;5284;50.446;7.904;2023-05-13T08:23:50;5.85;;;3.70;;
10473;SDS011;5284;50.446;7.904;2023-05-13T08:28:53;10.93;;;3.63;;
10473;SDS011;5284;50.446;7.904;2023-05-13T08:33:58;10.02;;;3.60;;
10473;SDS011;5284;50.446;7.904;2023-05-13T08:39:01;7.18;;;2.92;;
10473;SDS011;5284;50.446;7.904;2023-05-13T08:44:05;8.93;;;3.50;;
10473;SDS011;5284;50.446;7.904;2023-05-13T08:49:12;4.63;;;3.25;;
10473;SDS011;5284;50.446;7.904;2023-05-13T08:54:15;7.47;;;2.67;;
10473;SDS011;5284;50.446;7.904;2023-05-13T08:59:19;12.43;;;2.97;;
10473;SDS011;5284;50.446;7.904;2023-05-13T09:04:23;6.80;;;2.63;;
10473;SDS011;5284;50.446;7.904;2023-05-13T09:09:26;8.52;;;2.08;;
10473;SDS011;5284;50.446;7.904;2023-05-13T09:14:29;7.60;;;1.90;;
10473;SDS011;5284;50.446;7.904;2023-05-13T09:19:34;4.00;;;2.70;;
10473;SDS011;5284;50.446;7.904;2023-05-13T09:24:38;5.90;;;2.20;;
10473;SDS011;5284;50.446;7.904;2023-05-13T09:29:41;8.27;;;2.63;;
10473;SDS011;5284;50.446;7.904;2023-05-13T09:34:46;14.77;;;5.65;;
10473;SDS011;5284;50.446;7.904;2023-05-13T09:39:51;13.93;;;4.78;;
10473;SDS011;5284;50.446;7.904;2023-05-13T09:44:54;15.68;;;3.20;;
10473;SDS011;5284;50.446;7.904;2023-05-13T09:50:00;13.98;;;6.43;;
10473;SDS011;5284;50.446;7.904;2023-05-13T09:55:07;11.68;;;4.60;;
10473;SDS011;5284;50.446;7.904;2023-05-13T10:00:11;10.40;;;4.97;;
10473;SDS011;5284;50.446;7.904;2023-05-13T10:05:33;5.53;;;3.15;;
10473;SDS011;5284;50.446;7.904;2023-05-13T10:10:36;6.10;;;3.22;;
10473;SDS011;5284;50.446;7.904;2023-05-13T10:15:41;8.70;;;3.25;;
10473;SDS011;5284;50.446;7.904;2023-05-13T10:20:52;4.00;;;2.40;;
10473;SDS011;5284;50.446;7.904;2023-05-13T10:25:57;6.55;;;2.75;;
10473;SDS011;5284;50.446;7.904;2023-05-13T10:31:00;7.72;;;2.65;;
10473;SDS011;5284;50.446;7.904;2023-05-13T10:36:09;6.80;;;2.15;;
10473;SDS011;5284;50.446;7.904;2023-05-13T10:41:29;8.50;;;3.08;;
10473;SDS011;5284;50.446;7.904;2023-05-13T10:46:47;18.45;;;5.00;;
10473;SDS011;5284;50.446;7.904;2023-05-13T10:51:52;6.50;;;2.90;;
10473;SDS011;5284;50.446;7.904;2023-05-13T10:56:55;5.22;;;3.05;;
10473;SDS011;5284;50.446;7.904;2023-05-13T11:01:59;4.00;;;2.50;;
10473;SDS011;5284;50.446;7.904;2023-05-13T11:07:13;10.63;;;2.78;;
10473;SDS011;5284;50.446;7.904;2023-05-13T11:12:17;8.52;;;2.80;;
10473;SDS011;5284;50.446;7.904;2023-05-13T11:17:21;6.03;;;2.80;;
10473;SDS011;5284;50.446;7.904;2023-05-13T11:22:25;10.43;;;3.05;;
10473;SDS011;5284;50.446;7.904;2023-05-13T11:27:32;4.60;;;2.78;;
10473;SDS011;5284;50.446;7.904;2023-05-13T11:32:50;6.07;;;2.65;;
10473;SDS011;5284;50.446;7.904;2023-05-13T11:37:58;14.07;;;3.42;;
10473;SDS011;5284;50.446;7.904;2023-05-13T11:43:02;5.72;;;2.85;;
10473;SDS011;5284;50.446;7.904;2023-05-13T11:48:16;24.95;;;6.93;;
10473;SDS011;5284;50.446;7.904;2023-05-13T11:53:21;14.57;;;3.50;;
10473;SDS011;5284;50.446;7.904;2023-05-13T11:58:25;36.58;;;14.18;;
10473;SDS011;5284;50.446;7.904;2023-05-13T12:03:28;34.75;;;11.13;;
10473;SDS011;5284;50.446;7.904;2023-05-13T12:08:34;5.80;;;3.08;;
10473;SDS011;5284;50.446;7.904;2023-05-13T12:13:38;15.90;;;3.85;;
10473;SDS011;5284;50.446;7.904;2023-05-13T12:18:52;7.13;;;2.70;;
10473;SDS011;5284;50.446;7.904;2023-05-13T12:23:59;4.40;;;2.50;;
10473;SDS011;5284;50.446;7.904;2023-05-13T12:29:05;5.50;;;2.85;;
10473;SDS011;5284;50.446;7.904;2023-05-13T12:34:08;10.00;;;2.97;;
10473;SDS011;5284;50.446;7.904;2023-05-13T12:39:18;3.90;;;2.40;;
10473;SDS011;5284;50.446;7.904;2023-05-13T12:44:24;6.93;;;2.97;;
10473;SDS011;5284;50.446;7.904;2023-05-13T12:49:28;6.45;;;2.42;;
10473;SDS011;5284;50.446;7.904;2023-05-13T12:54:32;6.85;;;3.00;;
10473;SDS011;5284;50.446;7.904;2023-05-13T12:59:35;3.73;;;1.80;;
10473;SDS011;5284;50.446;7.904;2023-05-13T13:04:39;2.95;;;2.22;;
10473;SDS011;5284;50.446;7.904;2023-05-13T13:09:43;3.72;;;2.22;;
10473;SDS011;5284;50.446;7.904;2023-05-13T13:14:46;6.53;;;2.80;;
10473;SDS011;5284;50.446;7.904;2023-05-13T13:19:50;8.70;;;2.70;;
10473;SDS011;5284;50.446;7.904;2023-05-13T13:24:55;11.27;;;2.10;;
10473;SDS011;5284;50.446;7.904;2023-05-13T13:29:58;3.63;;;1.92;;
10473;SDS011;5284;50.446;7.904;2023-05-13T13:35:01;25.95;;;10.25;;
10473;SDS011;5284;50.446;7.904;2023-05-13T13:40:07;6.68;;;2.55;;
10473;SDS011;5284;50.446;7.904;2023-05-13T13:45:12;6.93;;;1.80;;
10473;SDS011;5284;50.446;7.904;2023-05-13T13:50:16;6.03;;;2.90;;
10473;SDS011;5284;50.446;7.904;2023-05-13T13:55:21;15.40;;;3.38;;
10473;SDS011;5284;50.446;7.904;2023-05-13T14:00:25;7.57;;;2.17;;
10473;SDS011;5284;50.446;7.904;2023-05-13T14:05:29;8.23;;;3.15;;
10473;SDS011;5284;50.446;7.904;2023-05-13T14:10:33;2.33;;;1.90;;
10473;SDS011;5284;50.446;7.904;2023-05-13T14:15:36;10.63;;;3.65;;
10473;SDS011;5284;50.446;7.904;2023-05-13T14:20:40;4.97;;;1.60;;
10473;SDS011;5284;50.446;7.904;2023-05-13T14:25:44;2.50;;;1.40;;
10473;SDS011;5284;50.446;7.904;2023-05-13T14:30:47;5.28;;;1.67;;
10473;SDS011;5284;50.446;7.904;2023-05-13T14:35:50;3.15;;;1.65;;
10473;SDS011;5284;50.446;7.904;2023-05-13T14:40:55;7.95;;;1.55;;
10473;SDS011;5284;50.446;7.904;2023-05-13T14:45:57;5.20;;;2.08;;
10473;SDS011;5284;50.446;7.904;2023-05-13T14:51:00;11.00;;;2.13;;
10473;SDS011;5284;50.446;7.904;2023-05-13T14:56:05;23.08;;;5.07;;
10473;SDS011;5284;50.446;7.904;2023-05-13T15:01:09;6.63;;;2.08;;
10473;SDS011;5284;50.446;7.904;2023-05-13T15:06:11;8.25;;;2.63;;
10473;SDS011;5284;50.446;7.904;2023-05-13T15:11:16;7.70;;;3.53;;
10473;SDS011;5284;50.446;7.904;2023-05-13T15:16:19;7.78;;;3.42;;
10473;SDS011;5284;50.446;7.904;2023-05-13T15:21:23;12.43;;;5.22;;
10473;SDS011;5284;50.446;7.904;2023-05-13T15:26:28;12.68;;;4.53;;
10473;SDS011;5284;50.446;7.904;2023-05-13T15:31:30;24.38;;;10.25;;
10473;SDS011;5284;50.446;7.904;2023-05-13T15:36:34;16.83;;;7.30;;
10473;SDS011;5284;50.446;7.904;2023-05-13T15:41:38;18.45;;;7.22;;
10473;SDS011;5284;50.446;7.904;2023-05-13T15:46:41;27.05;;;12.65;;
10473;SDS011;5284;50.446;7.904;2023-05-13T15:51:46;14.32;;;5.50;;
10473;SDS011;5284;50.446;7.904;2023-05-13T15:56:51;6.22;;;2.88;;
10473;SDS011;5284;50.446;7.904;2023-05-13T16:01:57;38.20;;;23.20;;
10473;SDS011;5284;50.446;7.904;2023-05-13T16:07:01;14.60;;;9.20;;
10473;SDS011;5284;50.446;7.904;2023-05-13T16:12:06;20.95;;;10.00;;
10473;SDS011;5284;50.446;7.904;2023-05-13T16:17:13;7.78;;;5.40;;
10473;SDS011;5284;50.446;7.904;2023-05-13T16:22:23;11.75;;;9.82;;
10473;SDS011;5284;50.446;7.904;2023-05-13T16:27:29;6.68;;;2.40;;
10473;SDS011;5284;50.446;7.904;2023-05-13T16:32:33;2.47;;;1.50;;
10473;SDS011;5284;50.446;7.904;2023-05-13T16:37:36;3.03;;;1.38;;
10473;SDS011;5284;50.446;7.904;2023-05-13T16:42:40;1.60;;;1.30;;
10473;SDS011;5284;50.446;7.904;2023-05-13T16:47:43;4.53;;;1.83;;
10473;SDS011;5284;50.446;7.904;2023-05-13T16:52:46;2.30;;;1.60;;
10473;SDS011;5284;50.446;7.904;2023-05-13T16:57:50;5.35;;;1.42;;
10473;SDS011;5284;50.446;7.904;2023-05-13T17:02:54;5.30;;;1.47;;
10473;SDS011;5284;50.446;7.904;2023-05-13T17:07:58;5.82;;;2.00;;
10473;SDS011;5284;50.446;7.904;2023-05-13T17:13:02;2.50;;;1.38;;
10473;SDS011;5284;50.446;7.904;2023-05-13T17:18:05;5.47;;;2.47;;
10473;SDS011;5284;50.446;7.904;2023-05-13T17:23:09;7.90;;;3.22;;
10473;SDS011;5284;50.446;7.904;2023-05-13T17:28:13;8.25;;;2.78;;
10473;SDS011;5284;50.446;7.904;2023-05-13T17:33:16;9.10;;;3.47;;
10473;SDS011;5284;50.446;7.904;2023-05-13T17:38:18;7.90;;;4.30;;
10473;SDS011;5284;50.446;7.904;2023-05-13T17:43:24;4.15;;;2.92;;
10473;SDS011;5284;50.446;7.904;2023-05-13T17:48:27;9.43;;;3.08;;
10473;SDS011;5284;50.446;7.904;2023-05-13T17:53:33;8.18;;;2.35;;
10473;SDS011;5284;50.446;7.904;2023-05-13T17:58:37;8.13;;;3.83;;
10473;SDS011;5284;50.446;7.904;2023-05-13T18:03:40;10.38;;;5.43;;
10473;SDS011;5284;50.446;7.904;2023-05-13T18:08:43;41.55;;;18.02;;
10473;SDS011;5284;50.446;7.904;2023-05-13T18:13:49;43.75;;;17.40;;
10473;SDS011;5284;50.446;7.904;2023-05-13T18:18:51;8.43;;;5.35;;
10473;SDS011;5284;50.446;7.904;2023-05-13T18:23:54;7.55;;;4.25;;
10473;SDS011;5284;50.446;7.904;2023-05-13T18:29:01;46.70;;;21.77;;
10473;SDS011;5284;50.446;7.904;2023-05-13T18:34:04;18.95;;;9.50;;
10473;SDS011;5284;50.446;7.904;2023-05-13T18:39:08;12.93;;;6.35;;
10473;SDS011;5284;50.446;7.904;2023-05-13T18:44:12;14.77;;;7.20;;
10473;SDS011;5284;50.446;7.904;2023-05-13T18:49:16;17.75;;;7.30;;
10473;SDS011;5284;50.446;7.904;2023-05-13T18:54:20;16.45;;;8.52;;
10473;SDS011;5284;50.446;7.904;2023-05-13T18:59:24;11.55;;;6.32;;
10473;SDS011;5284;50.446;7.904;2023-05-13T19:04:27;17.08;;;6.57;;
10473;SDS011;5284;50.446;7.904;2023-05-13T19:09:31;8.15;;;5.35;;
10473;SDS011;5284;50.446;7.904;2023-05-13T19:14:39;24.63;;;6.47;;
10473;SDS011;5284;50.446;7.904;2023-05-13T19:19:42;15.77;;;7.68;;
10473;SDS011;5284;50.446;7.904;2023-05-13T19:24:47;12.35;;;6.03;;
10473;SDS011;5284;50.446;7.904;2023-05-13T19:29:53;24.35;;;14.80;;
10473;SDS011;5284;50.446;7.904;2023-05-13T19:34:56;21.17;;;10.80;;
10473;SDS011;5284;50.446;7.904;2023-05-13T19:39:59;46.50;;;10.48;;
10473;SDS011;5284;50.446;7.904;2023-05-13T19:45:03;17.17;;;10.13;;
10473;SDS011;5284;50.446;7.904;2023-05-13T19:50:07;9.10;;;5.97;;
10473;SDS011;5284;50.446;7.904;2023-05-13T19:55:11;11.77;;;6.88;;
10473;SDS011;5284;50.446;7.904;2023-05-13T20:00:17;21.00;;;9.95;;
10473;SDS011;5284;50.446;7.904;2023-05-13T20:05:20;21.27;;;8.57;;
10473;SDS011;5284;50.446;7.904;2023-05-13T20:10:24;11.52;;;7.63;;
10473;SDS011;5284;50.446;7.904;2023-05-13T20:15:28;9.98;;;6.85;;
10473;SDS011;5284;50.446;7.904;2023-05-13T20:20:31;10.40;;;6.72;;
10473;SDS011;5284;50.446;7.904;2023-05-13T20:25:35;12.02;;;6.45;;
10473;SDS011;5284;50.446;7.904;2023-05-13T20:30:40;10.02;;;6.35;;
10473;SDS011;5284;50.446;7.904;2023-05-13T20:35:43;12.88;;;6.85;;
10473;SDS011;5284;50.446;7.904;2023-05-13T20:40:46;8.60;;;5.53;;
10473;SDS011;5284;50.446;7.904;2023-05-13T20:45:50;15.23;;;6.95;;
10473;SDS011;5284;50.446;7.904;2023-05-13T20:50:57;10.95;;;7.28;;
10473;SDS011;5284;50.446;7.904;2023-05-13T20:56:00;10.88;;;7.15;;
10473;SDS011;5284;50.446;7.904;2023-05-13T21:01:06;26.45;;;10.40;;
10473;SDS011;5284;50.446;7.904;2023-05-13T21:06:09;16.25;;;8.48;;
10473;SDS011;5284;50.446;7.904;2023-05-13T21:11:12;14.77;;;8.15;;
10473;SDS011;5284;50.446;7.904;2023-05-13T21:16:17;15.23;;;9.13;;
10473;SDS011;5284;50.446;7.904;2023-05-13T21:21:20;20.48;;;9.18;;
10473;SDS011;5284;50.446;7.904;2023-05-13T21:26:23;16.40;;;9.73;;
10473;SDS011;5284;50.446;7.904;2023-05-13T21:31:27;14.00;;;10.43;;
10473;SDS011;5284;50.446;7.904;2023-05-13T21:36:30;29.10;;;11.98;;
10473;SDS011;5284;50.446;7.904;2023-05-13T21:41:34;17.80;;;11.30;;
10473;SDS011;5284;50.446;7.904;2023-05-13T21:46:38;14.93;;;10.23;;
10473;SDS011;5284;50.446;7.904;2023-05-13T21:51:41;14.82;;;10.68;;
10473;SDS011;5284;50.446;7.904;2023-05-13T21:56:43;20.60;;;12.50;;
10473;SDS011;5284;50.446;7.904;2023-05-13T22:01:48;21.02;;;10.15;;
10473;SDS011;5284;50.446;7.904;2023-05-13T22:06:51;35.30;;;12.13;;
10473;SDS011;5284;50.446;7.904;2023-05-13T22:11:56;16.92;;;10.77;;
10473;SDS011;5284;50.446;7.904;2023-05-13T22:17:00;20.90;;;9.02;;
10473;SDS011;5284;50.446;7.904;2023-05-13T22:22:10;17.95;;;9.57;;
10473;SDS011;5284;50.446;7.904;2023-05-13T22:27:13;28.77;;;10.07;;
10473;SDS011;5284;50.446;7.904;2023-05-13T22:32:17;49.45;;;8.77;;
10473;SDS011;5284;50.446;7.904;2023-05-13T22:37:20;37.95;;;8.32;;
10473;SDS011;5284;50.446;7.904;2023-05-13T22:42:23;15.75;;;8.00;;
10473;SDS011;5284;50.446;7.904;2023-05-13T22:47:27;127.32;;;9.82;;
10473;SDS011;5284;50.446;7.904;2023-05-13T22:52:30;142.75;;;9.98;;
10473;SDS011;5284;50.446;7.904;2023-05-13T22:57:33;95.25;;;11.07;;
10473;SDS011;5284;50.446;7.904;2023-05-13T23:02:37;58.45;;;10.38;;
10473;SDS011;5284;50.446;7.904;2023-05-13T23:07:41;32.17;;;8.57;;
10473;SDS011;5284;50.446;7.904;2023-05-13T23:12:44;19.65;;;8.30;;
10473;SDS011;5284;50.446;7.904;2023-05-13T23:17:48;13.32;;;7.88;;
10473;SDS011;5284;50.446;7.904;2023-05-13T23:22:51;11.95;;;8.05;;
10473;SDS011;5284;50.446;7.904;2023-05-13T23:27:54;19.55;;;9.48;;
10473;SDS011;5284;50.446;7.904;2023-05-13T23:32:58;123.70;;;10.82;;
10473;SDS011;5284;50.446;7.904;2023-05-13T23:38:01;64.75;;;10.82;;
10473;SDS011;5284;50.446;7.904;2023-05-13T23:43:03;39.47;;;11.10;;
10473;SDS011;5284;50.446;7.904;2023-05-13T23:48:08;17.05;;;9.90;;
10473;SDS011;5284;50.446;7.904;2023-05-13T23:53:11;26.85;;;10.73;;
10473;SDS011;5284;50.446;7.904;2023-05-13T23:58:15;14.05;;;9.80;;
